الصفحة الرئيسية
METAR-TAF:

METAR-TAF

مطار :

مطار الصويرة موكادور

الصويرة, المغرب

دائرة عرض: 31-31N, خط طول: 009-47W, ارتفاع: 15 متر

مراقبة الطقس الحالي

تاريخ ووقت الإصدار 9ساعات و 34 دقيقة قبل الساعة 18:00UTC
ريح 8 عقدة من الشمال/الشمال الغربي
درجة الحرارة 26°درجة مئوية
الرطوبة 61%
ضغط 1015 hPa
الرؤية 10 كم أو أكثر
الغيوم لا تقل 1500 م ولا وجود لمزنة ركامية السحاب الأسود

METAR: GMMI 261800Z 34008KT CAVOK 26/18 Q1015 NOSIG

زمن: 04:34 (03:34 UTC)

توقعات

تاريخ ووقت الإصدار 4ساعات و 34 دقيقة قبل الساعة 23:00UTC
التوقعات صالحة من27 الساعة 00 UTC إلى 28 الساعة 06 UTC
ريح 6 عقدة من الشمال/الشمال الشرقي
الرؤية 10 كم أو أكثر
الغيوم لا تقل 1500 م ولا وجود لمزنة ركامية السحاب الأسود

TAF: GMMI 262300Z 2700/2806 02006KT CAVOK

أرصاد الطقس والتوقعات من أكثر من 4000 مطار (تقارير الطقس للمطار METAR والتنبؤ بالطقس بالمطارTAF).

المحطات المتاحة هي النقط الصفراء والحمراء على الخريطة.

حرك المؤشر فوق النقطة لمعرفة اسم المحطة.

ثم انقر لمعرفة أرصاد وتوقعات الطقس.

لتغيير الخارطة: اضغط على الأزرار الخضراء مع رمز الصليب الأسود للتكبير. على الزر الأخضر مع شرطة للتصغير، أو على الأسهم الخضراء للخرائط المجاورة.


METAR-TAF: